Time;durP1;ratioP1;P1;durP2;ratioP2;P2;SDS_P1;SDS_P2;PMS_P1;PMS_P2;Temp;Humidity;BMP_temperature;BMP_pressure;BME280_temperature;BME280_humidity;BME280_pressure;Samples;Min_cycle;Max_cycle;Signal;HPM_P1;HPM_P2
2021/08/21 00:00:27;;;;;;;3.83;3.47;;;18.00;99.90;;;;;;6243457;22;20266;-65
2021/08/21 00:02:52;;;;;;;3.97;3.50;;;17.90;99.90;;;;;;6243663;23;20146;-65
2021/08/21 00:05:18;;;;;;;5.33;3.50;;;17.90;99.90;;;;;;6243882;23;20147;-65
2021/08/21 00:07:45;;;;;;;4.50;3.70;;;17.70;99.90;;;;;;6243743;23;20169;-65
2021/08/21 00:10:12;;;;;;;4.10;3.70;;;17.80;99.90;;;;;;6241574;22;20166;-64
2021/08/21 00:12:38;;;;;;;4.17;3.73;;;17.80;99.90;;;;;;6243582;23;20200;-65
2021/08/21 00:15:05;;;;;;;3.57;3.27;;;17.70;99.90;;;;;;6243845;23;20242;-65
2021/08/21 00:17:31;;;;;;;4.13;3.73;;;17.70;99.90;;;;;;6243581;23;20179;-65
2021/08/21 00:19:57;;;;;;;5.33;3.83;;;17.60;99.90;;;;;;6243254;23;20147;-65
2021/08/21 00:22:22;;;;;;;4.20;3.80;;;17.70;99.90;;;;;;6243504;22;20170;-64
2021/08/21 00:24:48;;;;;;;3.87;3.30;;;17.70;99.90;;;;;;6243462;23;20467;-65
2021/08/21 00:27:13;;;;;;;4.67;3.90;;;17.70;99.90;;;;;;6243378;23;20143;-65
2021/08/21 00:29:39;;;;;;;3.57;3.27;;;17.70;99.90;;;;;;6243038;23;20552;-65
2021/08/21 00:32:05;;;;;;;3.83;3.50;;;17.70;99.90;;;;;;6243807;22;20170;-65
2021/08/21 00:34:31;;;;;;;4.00;3.60;;;17.60;99.90;;;;;;6243420;23;20228;-65
2021/08/21 00:36:57;;;;;;;4.33;3.60;;;17.60;99.90;;;;;;6243314;23;20167;-64
2021/08/21 00:39:23;;;;;;;4.60;3.70;;;17.60;99.90;;;;;;6243036;23;20157;-65
2021/08/21 00:41:48;;;;;;;3.80;3.50;;;17.40;99.90;;;;;;6243350;22;20234;-65
2021/08/21 00:44:14;;;;;;;3.97;3.57;;;17.50;99.90;;;;;;6243150;23;20238;-65
2021/08/21 00:47:05;;;;;;;3.63;3.30;;;17.50;99.90;;;;;;6243459;23;20613;-65
2021/08/21 00:49:35;;;;;;;5.10;3.60;;;17.40;99.90;;;;;;6243079;23;20477;-65
2021/08/21 00:52:02;;;;;;;3.80;3.30;;;17.40;99.90;;;;;;6243329;22;20190;-65
2021/08/21 00:54:28;;;;;;;4.17;3.37;;;17.30;99.90;;;;;;6243081;23;20489;-65
2021/08/21 00:56:56;;;;;;;5.90;3.37;;;17.40;99.90;;;;;;6243028;23;20162;-65
2021/08/21 00:59:21;;;;;;;3.83;3.53;;;17.40;99.90;;;;;;6242983;23;20143;-65
2021/08/21 01:01:48;;;;;;;3.60;3.30;;;17.40;99.90;;;;;;6243359;22;20618;-64
2021/08/21 01:04:14;;;;;;;5.33;3.60;;;17.40;99.90;;;;;;6243656;23;20700;-65
2021/08/21 01:06:40;;;;;;;3.40;3.10;;;17.30;99.90;;;;;;6243308;23;20153;-64
2021/08/21 01:09:06;;;;;;;3.67;3.37;;;17.40;99.90;;;;;;6243373;23;20142;-65
2021/08/21 01:11:32;;;;;;;3.90;3.60;;;17.30;99.90;;;;;;6242910;22;20190;-65
2021/08/21 01:13:58;;;;;;;3.50;3.20;;;17.20;99.90;;;;;;6243065;23;20151;-65
2021/08/21 01:16:24;;;;;;;4.87;3.23;;;17.20;99.90;;;;;;6243280;23;20469;-64
2021/08/21 01:18:50;;;;;;;4.10;3.50;;;17.20;99.90;;;;;;6242855;23;20149;-64
2021/08/21 01:21:16;;;;;;;4.20;3.40;;;17.20;99.90;;;;;;6242808;22;20163;-64
2021/08/21 01:23:41;;;;;;;3.70;3.40;;;17.30;99.90;;;;;;6243139;23;20139;-65
2021/08/21 01:26:10;;;;;;;3.77;3.47;;;17.20;99.90;;;;;;6242990;23;20196;-64
2021/08/21 01:28:36;;;;;;;4.10;3.70;;;17.20;99.90;;;;;;6242671;23;20158;-64
2021/08/21 01:31:07;;;;;;;4.97;3.50;;;17.10;99.90;;;;;;6242996;22;20219;-65
2021/08/21 01:33:34;;;;;;;3.60;3.30;;;17.00;99.90;;;;;;6242966;23;20177;-64
2021/08/21 01:36:00;;;;;;;3.43;3.13;;;16.90;99.90;;;;;;6243268;23;20586;-64
2021/08/21 01:38:25;;;;;;;3.33;3.03;;;16.90;99.90;;;;;;6244701;23;20177;-64
2021/08/21 01:40:52;;;;;;;3.50;3.17;;;16.80;99.90;;;;;;6245040;22;20162;-64
2021/08/21 01:43:18;;;;;;;4.57;3.50;;;16.80;99.90;;;;;;6245066;23;20139;-64
2021/08/21 01:45:44;;;;;;;5.20;3.50;;;16.80;99.90;;;;;;6245006;23;20600;-64
2021/08/21 01:48:11;;;;;;;4.23;3.10;;;16.80;99.90;;;;;;6245075;23;20142;-65
2021/08/21 01:50:37;;;;;;;8.33;3.90;;;16.80;99.90;;;;;;6244719;22;20189;-65
2021/08/21 01:53:03;;;;;;;3.70;3.40;;;16.80;99.90;;;;;;6244914;23;20142;-64
2021/08/21 01:55:31;;;;;;;3.27;2.97;;;16.80;99.90;;;;;;6245030;23;20222;-64
2021/08/21 01:57:57;;;;;;;4.53;3.40;;;16.80;99.90;;;;;;6244844;23;20171;-64
2021/08/21 02:00:27;;;;;;;3.80;3.40;;;16.70;99.90;;;;;;6244642;22;20166;-64
2021/08/21 02:02:54;;;;;;;3.57;3.27;;;16.60;99.90;;;;;;6244868;23;20427;-64
2021/08/21 02:05:20;;;;;;;3.97;3.67;;;16.60;99.90;;;;;;6245260;23;20146;-64
2021/08/21 02:07:45;;;;;;;4.20;3.13;;;16.60;99.90;;;;;;6245074;23;20154;-64
2021/08/21 02:10:11;;;;;;;3.40;3.10;;;16.60;99.90;;;;;;6244305;22;20150;-64
2021/08/21 02:12:37;;;;;;;4.93;3.13;;;16.60;99.90;;;;;;6244815;23;20178;-64
2021/08/21 02:15:17;;;;;;;3.53;3.23;;;16.60;99.90;;;;;;6244823;23;20465;-64
2021/08/21 02:17:42;;;;;;;4.20;3.13;;;16.80;99.90;;;;;;6244765;23;20170;-64
2021/08/21 02:20:12;;;;;;;3.73;3.43;;;16.60;99.90;;;;;;6244326;23;20173;-64
2021/08/21 02:22:42;;;;;;;3.20;2.97;;;16.70;99.90;;;;;;6244935;23;20569;-65
2021/08/21 02:25:11;;;;;;;3.93;3.43;;;16.70;99.90;;;;;;6244799;23;20434;-64
2021/08/21 02:27:39;;;;;;;4.30;3.30;;;16.70;99.90;;;;;;6245158;23;20154;-64
2021/08/21 02:30:06;;;;;;;4.03;3.63;;;16.50;99.90;;;;;;6244537;23;20178;-64
2021/08/21 02:32:31;;;;;;;4.70;3.77;;;16.60;99.90;;;;;;6244661;22;20212;-64
2021/08/21 02:34:57;;;;;;;3.80;3.50;;;16.70;99.90;;;;;;6244657;23;20465;-64
2021/08/21 02:37:23;;;;;;;3.57;3.27;;;16.70;99.90;;;;;;6244723;23;20174;-64
2021/08/21 02:39:49;;;;;;;5.03;4.00;;;16.60;99.90;;;;;;6244218;23;20804;-64
2021/08/21 02:42:15;;;;;;;3.70;3.40;;;16.50;99.90;;;;;;6244809;22;20189;-64
2021/08/21 02:44:40;;;;;;;4.73;3.60;;;16.60;99.90;;;;;;6244755;23;20150;-65
2021/08/21 02:47:06;;;;;;;4.67;3.57;;;16.60;99.90;;;;;;6244697;23;20153;-65
2021/08/21 02:49:33;;;;;;;4.10;3.70;;;16.60;99.90;;;;;;6244437;23;20153;-65
2021/08/21 02:51:58;;;;;;;3.67;3.37;;;16.50;99.90;;;;;;6245023;22;20177;-65
2021/08/21 02:54:24;;;;;;;4.67;3.57;;;16.40;99.90;;;;;;6244914;23;20472;-65
2021/08/21 02:56:50;;;;;;;3.67;3.17;;;16.40;99.90;;;;;;6244667;23;20170;-64
2021/08/21 02:59:15;;;;;;;5.20;3.30;;;16.50;99.90;;;;;;6244360;23;20150;-65
2021/08/21 03:01:41;;;;;;;5.30;3.60;;;16.50;99.90;;;;;;6244614;22;20190;-64
2021/08/21 03:04:06;;;;;;;3.57;3.27;;;16.50;99.90;;;;;;6244861;23;20146;-65
2021/08/21 03:06:32;;;;;;;4.40;3.47;;;16.50;99.90;;;;;;6244627;23;20147;-64
2021/08/21 03:08:57;;;;;;;3.80;3.40;;;16.50;99.90;;;;;;6244301;23;20513;-65
2021/08/21 03:11:23;;;;;;;3.93;3.40;;;16.50;99.90;;;;;;6244397;22;20582;-64
2021/08/21 03:13:48;;;;;;;4.17;3.30;;;16.50;99.90;;;;;;6244724;23;20518;-64
2021/08/21 03:16:14;;;;;;;3.97;3.40;;;16.40;99.90;;;;;;6244582;23;20221;-64
2021/08/21 03:18:39;;;;;;;3.87;3.50;;;16.40;99.90;;;;;;6243923;23;20146;-64
2021/08/21 03:21:05;;;;;;;3.80;3.43;;;16.40;99.90;;;;;;6244411;22;20162;-65
2021/08/21 03:23:31;;;;;;;3.43;3.00;;;16.40;99.90;;;;;;6244371;23;20143;-64
2021/08/21 03:25:56;;;;;;;5.77;3.70;;;16.30;99.90;;;;;;6244436;23;20222;-64
2021/08/21 03:28:22;;;;;;;4.43;3.43;;;16.40;99.90;;;;;;6244061;23;20155;-64
2021/08/21 03:30:47;;;;;;;4.20;3.43;;;16.30;99.90;;;;;;6244013;22;20556;-64
2021/08/21 03:33:13;;;;;;;4.43;2.87;;;16.30;99.90;;;;;;6244633;23;20151;-64
2021/08/21 03:35:39;;;;;;;3.60;3.00;;;16.30;99.90;;;;;;6244289;23;20212;-64
2021/08/21 03:38:04;;;;;;;3.83;3.43;;;16.30;99.90;;;;;;6244109;23;20171;-65
2021/08/21 03:40:30;;;;;;;3.30;3.00;;;16.20;99.90;;;;;;6243832;22;20508;-65
2021/08/21 03:42:55;;;;;;;3.57;3.27;;;16.20;99.90;;;;;;6244261;23;20226;-64
2021/08/21 03:45:21;;;;;;;3.60;3.30;;;16.20;99.90;;;;;;6244538;23;20205;-63
2021/08/21 03:47:47;;;;;;;5.47;3.43;;;16.20;99.90;;;;;;6244280;23;20222;-64
2021/08/21 03:50:13;;;;;;;3.53;3.20;;;16.10;99.90;;;;;;6243564;22;20142;-64
2021/08/21 03:52:39;;;;;;;3.67;3.00;;;16.00;99.90;;;;;;6244420;23;20153;-64
2021/08/21 03:55:05;;;;;;;5.20;3.43;;;16.00;99.90;;;;;;6243975;23;20240;-63
2021/08/21 03:57:31;;;;;;;4.07;3.70;;;16.00;99.90;;;;;;6243893;23;20500;-64
2021/08/21 03:59:56;;;;;;;5.23;3.53;;;16.00;99.90;;;;;;6243155;23;20177;-64
2021/08/21 04:02:22;;;;;;;4.10;3.43;;;16.00;99.90;;;;;;6243918;22;20166;-64
2021/08/21 04:04:47;;;;;;;4.00;3.30;;;16.00;99.90;;;;;;6243849;23;20607;-64
2021/08/21 04:07:17;;;;;;;3.93;3.47;;;16.00;99.90;;;;;;6243794;23;20146;-64
2021/08/21 04:09:43;;;;;;;4.87;3.40;;;16.00;99.90;;;;;;6243272;23;20485;-64
2021/08/21 04:12:09;;;;;;;3.67;3.30;;;15.90;99.90;;;;;;6285016;22;20195;-58
2021/08/21 04:14:34;;;;;;;4.07;3.67;;;16.00;99.90;;;;;;6303729;22;20173;-61
2021/08/21 04:17:00;;;;;;;4.27;3.87;;;16.10;99.90;;;;;;6304690;22;20165;-61
2021/08/21 04:19:25;;;;;;;3.93;3.53;;;16.00;99.90;;;;;;6305213;22;20143;-60
2021/08/21 04:21:51;;;;;;;4.37;3.80;;;16.00;99.90;;;;;;6287793;22;20196;-60
2021/08/21 04:24:17;;;;;;;4.80;3.50;;;16.00;99.90;;;;;;6274140;22;20138;-56
2021/08/21 04:26:42;;;;;;;4.17;3.53;;;16.00;99.90;;;;;;6273913;22;20146;-58
2021/08/21 04:29:10;;;;;;;4.03;3.60;;;16.00;99.90;;;;;;6273643;22;20150;-58
2021/08/21 04:31:36;;;;;;;3.93;3.53;;;16.00;99.90;;;;;;6273890;22;20166;-57
2021/08/21 04:34:02;;;;;;;3.90;3.50;;;16.00;99.90;;;;;;6272700;22;20150;-58
2021/08/21 04:36:27;;;;;;;6.23;3.37;;;16.00;99.90;;;;;;6272454;22;20147;-57
2021/08/21 04:38:53;;;;;;;3.93;3.30;;;16.00;99.90;;;;;;6272664;22;20207;-58
2021/08/21 04:41:18;;;;;;;3.83;3.50;;;16.00;99.90;;;;;;6272806;22;20198;-58
2021/08/21 04:43:44;;;;;;;4.20;3.60;;;16.10;99.90;;;;;;6273536;22;20169;-57
2021/08/21 04:46:10;;;;;;;3.93;3.20;;;16.10;99.90;;;;;;6273350;22;20157;-58
2021/08/21 04:48:35;;;;;;;5.60;3.67;;;16.10;99.90;;;;;;6271576;22;20148;-56
2021/08/21 04:51:01;;;;;;;5.77;3.40;;;16.20;99.90;;;;;;6271924;22;20158;-57
2021/08/21 04:53:26;;;;;;;5.07;3.50;;;16.20;99.90;;;;;;6273089;22;20142;-56
2021/08/21 04:55:52;;;;;;;3.70;3.40;;;16.20;99.90;;;;;;6273382;22;20149;-58
2021/08/21 04:58:17;;;;;;;4.87;3.70;;;16.30;99.90;;;;;;6272762;22;20253;-57
2021/08/21 05:00:43;;;;;;;4.97;3.40;;;16.40;99.90;;;;;;6271540;22;20154;-54
2021/08/21 05:03:08;;;;;;;3.50;3.20;;;16.30;99.90;;;;;;6271208;22;20495;-56
2021/08/21 05:05:35;;;;;;;4.57;3.43;;;16.40;99.90;;;;;;6273572;22;20145;-57
2021/08/21 05:08:01;;;;;;;3.60;3.30;;;16.40;99.90;;;;;;6271432;22;20141;-58
2021/08/21 05:10:26;;;;;;;3.53;3.23;;;16.50;99.90;;;;;;6271536;22;20145;-57
2021/08/21 05:12:52;;;;;;;3.33;3.10;;;16.50;99.90;;;;;;6245572;22;20190;-54
2021/08/21 05:15:18;;;;;;;4.33;3.30;;;16.60;99.90;;;;;;6272206;22;20150;-58
2021/08/21 05:17:44;;;;;;;3.93;3.40;;;16.60;99.90;;;;;;6271854;22;20173;-54
2021/08/21 05:25:14;;;;;;;4.10;3.43;;;16.90;99.90;;;;;;6273731;22;20149;-56
2021/08/21 05:27:40;;;;;;;3.73;3.43;;;16.90;99.90;;;;;;6246471;22;20645;-60
2021/08/21 05:30:06;;;;;;;4.27;3.50;;;17.00;99.90;;;;;;6273059;22;20150;-56
2021/08/21 05:32:32;;;;;;;3.47;3.17;;;17.00;99.90;;;;;;6273374;22;20173;-61
2021/08/21 05:34:58;;;;;;;3.50;3.20;;;17.00;99.90;;;;;;6273540;22;20145;-57
2021/08/21 05:37:24;;;;;;;4.40;3.20;;;17.20;99.90;;;;;;6273288;22;20319;-59
2021/08/21 05:39:50;;;;;;;3.40;3.10;;;17.10;99.90;;;;;;6272189;22;20138;-54
2021/08/21 05:42:16;;;;;;;4.07;3.50;;;17.10;99.90;;;;;;6273396;22;20162;-58
2021/08/21 05:44:41;;;;;;;3.90;3.50;;;17.20;99.90;;;;;;6273604;22;20229;-55
2021/08/21 05:47:07;;;;;;;3.93;3.53;;;17.20;99.90;;;;;;6273284;22;20651;-56
2021/08/21 05:49:33;;;;;;;3.73;3.43;;;17.30;99.90;;;;;;6273253;22;20142;-54
2021/08/21 05:51:58;;;;;;;3.70;3.30;;;17.40;99.90;;;;;;6273253;22;20169;-58
2021/08/21 05:54:24;;;;;;;3.47;2.97;;;17.30;99.90;;;;;;6273341;22;20149;-58
2021/08/21 05:56:49;;;;;;;3.77;3.47;;;17.40;99.90;;;;;;6273661;22;20176;-54
2021/08/21 05:59:15;;;;;;;3.80;3.50;;;17.60;99.90;;;;;;6273131;22;20577;-57
2021/08/21 06:01:40;;;;;;;4.60;3.23;;;17.60;99.90;;;;;;6273315;22;20162;-58
2021/08/21 06:04:07;;;;;;;3.40;3.10;;;17.70;99.90;;;;;;6273730;22;20153;-56
2021/08/21 06:06:36;;;;;;;3.70;3.40;;;17.80;99.90;;;;;;6273566;22;20660;-58
2021/08/21 06:09:03;;;;;;;4.10;3.70;;;17.90;99.90;;;;;;6273081;22;20502;-59
2021/08/21 06:11:29;;;;;;;3.60;3.30;;;17.90;99.90;;;;;;6273015;22;20224;-57
2021/08/21 06:13:55;;;;;;;4.23;3.70;;;18.00;99.90;;;;;;6273408;22;20559;-53
2021/08/21 06:16:21;;;;;;;3.70;3.40;;;18.10;99.90;;;;;;6273372;22;20174;-56
2021/08/21 06:18:46;;;;;;;3.77;3.43;;;18.20;99.90;;;;;;6272863;22;20147;-59
2021/08/21 06:21:13;;;;;;;3.83;3.43;;;18.40;99.90;;;;;;6273240;22;20161;-57
2021/08/21 06:23:38;;;;;;;4.37;3.97;;;18.40;99.90;;;;;;6274305;22;20140;-56
2021/08/21 06:26:04;;;;;;;3.97;3.57;;;18.50;99.90;;;;;;6275393;22;20145;-56
2021/08/21 06:28:29;;;;;;;4.23;3.83;;;18.50;99.90;;;;;;6274839;22;20149;-58
2021/08/21 06:30:55;;;;;;;4.50;4.03;;;18.60;99.90;;;;;;6274874;22;20488;-55
2021/08/21 06:33:20;;;;;;;4.60;4.20;;;18.70;99.90;;;;;;6275062;22;20191;-57
2021/08/21 06:35:46;;;;;;;4.60;4.20;;;18.60;99.90;;;;;;6275257;22;20629;-59
2021/08/21 06:38:12;;;;;;;4.73;4.23;;;18.60;99.90;;;;;;6274702;22;20169;-58
2021/08/21 06:40:38;;;;;;;4.90;4.40;;;18.80;99.90;;;;;;6274783;22;20145;-58
2021/08/21 06:43:03;;;;;;;4.70;4.20;;;18.90;99.90;;;;;;6275198;22;20187;-58
2021/08/21 06:45:29;;;;;;;4.67;4.27;;;18.90;99.90;;;;;;6273402;22;20149;-57
2021/08/21 06:47:55;;;;;;;4.50;4.10;;;18.90;99.90;;;;;;6275264;22;20297;-59
2021/08/21 06:50:21;;;;;;;4.50;4.10;;;19.00;99.90;;;;;;6275033;22;20154;-54
2021/08/21 06:52:47;;;;;;;4.23;3.83;;;19.10;99.90;;;;;;6275278;22;20189;-57
2021/08/21 06:55:12;;;;;;;3.97;3.67;;;19.00;99.90;;;;;;6275005;22;20146;-55
2021/08/21 06:57:38;;;;;;;4.30;3.70;;;19.10;99.90;;;;;;6275030;22;20165;-59
2021/08/21 07:00:04;;;;;;;3.70;3.40;;;19.20;99.90;;;;;;6274522;22;20142;-57
2021/08/21 07:02:29;;;;;;;4.17;3.77;;;19.10;99.90;;;;;;6275333;22;20166;-58
2021/08/21 07:04:55;;;;;;;6.50;5.90;;;19.20;99.90;;;;;;6274849;22;20150;-59
2021/08/21 07:07:20;;;;;;;3.63;3.30;;;19.30;99.90;;;;;;6247762;22;20150;-56
2021/08/21 07:09:46;;;;;;;4.03;3.53;;;19.30;99.90;;;;;;6274547;22;20156;-52
2021/08/21 07:12:11;;;;;;;5.77;3.50;;;19.20;99.90;;;;;;6274705;22;20182;-56
2021/08/21 07:14:37;;;;;;;3.53;3.23;;;19.10;99.90;;;;;;6274918;22;20149;-55
2021/08/21 07:17:03;;;;;;;4.30;3.60;;;19.40;99.90;;;;;;6274872;22;20222;-58
2021/08/21 07:19:28;;;;;;;4.30;3.37;;;19.50;99.90;;;;;;6274753;22;20148;-59
2021/08/21 07:21:54;;;;;;;3.60;3.30;;;19.60;99.90;;;;;;6274696;22;20158;-58
2021/08/21 07:24:21;;;;;;;3.43;3.13;;;19.60;99.90;;;;;;6275511;22;20154;-58
2021/08/21 07:26:46;;;;;;;3.87;3.30;;;19.80;99.90;;;;;;6275002;22;20142;-55
2021/08/21 07:29:12;;;;;;;3.40;3.10;;;19.90;99.90;;;;;;6274834;22;20146;-58
2021/08/21 07:31:37;;;;;;;4.30;3.50;;;20.00;99.90;;;;;;6274677;22;20623;-56
2021/08/21 07:34:03;;;;;;;4.50;3.70;;;20.10;99.90;;;;;;6274608;22;20142;-58
2021/08/21 07:36:28;;;;;;;3.60;3.13;;;20.10;99.90;;;;;;6274606;22;20571;-58
2021/08/21 07:38:54;;;;;;;4.93;3.40;;;20.20;99.90;;;;;;6274520;22;20211;-59
2021/08/21 07:41:20;;;;;;;3.30;3.03;;;20.20;99.90;;;;;;6274887;22;20229;-58
2021/08/21 07:43:45;;;;;;;3.77;3.40;;;20.40;99.90;;;;;;6247991;22;20146;-56
2021/08/21 07:46:11;;;;;;;3.17;2.97;;;20.40;99.90;;;;;;6274852;22;20221;-58
2021/08/21 07:48:37;;;;;;;3.60;3.30;;;20.60;99.90;;;;;;6274266;22;20149;-56
2021/08/21 07:51:04;;;;;;;3.10;2.87;;;20.60;99.90;;;;;;6274690;22;20591;-57
2021/08/21 07:53:29;;;;;;;4.07;3.30;;;20.70;99.90;;;;;;6274565;22;20149;-57
2021/08/21 07:55:55;;;;;;;3.00;2.80;;;20.80;99.90;;;;;;6274661;22;20505;-57
2021/08/21 07:58:20;;;;;;;3.40;3.00;;;21.00;99.90;;;;;;6274746;22;20239;-60
2021/08/21 08:00:46;;;;;;;4.07;3.22;;;21.30;99.90;;;;;;6274351;22;20147;-58
2021/08/21 08:03:14;;;;;;;4.30;3.30;;;21.60;99.90;;;;;;6274301;22;20142;-58
2021/08/21 08:05:43;;;;;;;4.63;3.33;;;21.60;99.90;;;;;;6274625;22;20140;-58
2021/08/21 08:08:09;;;;;;;5.13;3.70;;;21.70;99.90;;;;;;6274395;22;20532;-57
2021/08/21 08:10:35;;;;;;;3.35;3.05;;;21.80;99.90;;;;;;6274384;22;20180;-58
2021/08/21 08:13:00;;;;;;;3.15;2.85;;;21.90;99.90;;;;;;6247155;22;20267;-58
2021/08/21 08:15:26;;;;;;;3.88;3.47;;;22.10;99.90;;;;;;6274385;22;20588;-58
2021/08/21 08:17:52;;;;;;;3.80;3.50;;;22.20;99.90;;;;;;6274280;22;20636;-59
2021/08/21 08:20:17;;;;;;;3.38;3.08;;;22.20;99.90;;;;;;6273800;22;20151;-60
2021/08/21 08:22:43;;;;;;;2.90;2.70;;;22.40;99.90;;;;;;6274200;22;20215;-59
2021/08/21 08:25:09;;;;;;;2.80;2.60;;;22.60;99.90;;;;;;6274143;22;20141;-57
2021/08/21 08:27:35;;;;;;;3.20;2.90;;;22.60;99.90;;;;;;6274431;22;20196;-57
2021/08/21 08:30:01;;;;;;;3.03;2.75;;;22.70;99.90;;;;;;6274111;22;20150;-58
2021/08/21 08:32:27;;;;;;;3.40;2.88;;;23.00;99.90;;;;;;6274130;22;20596;-59
2021/08/21 08:34:52;;;;;;;3.35;2.97;;;23.10;99.90;;;;;;6273942;22;20142;-56
2021/08/21 08:37:18;;;;;;;3.70;2.70;;;23.40;99.90;;;;;;6274159;22;20254;-59
2021/08/21 08:39:43;;;;;;;3.20;2.90;;;23.50;99.90;;;;;;6273692;22;20473;-58
2021/08/21 08:42:10;;;;;;;3.20;2.90;;;23.70;99.90;;;;;;6273961;22;20239;-58
2021/08/21 08:44:41;;;;;;;2.92;2.72;;;23.70;99.90;;;;;;6274514;22;20211;-58
2021/08/21 08:47:08;;;;;;;5.13;2.60;;;23.50;99.90;;;;;;6273745;22;20134;-59
2021/08/21 08:49:35;;;;;;;2.47;2.28;;;23.60;99.90;;;;;;6273920;22;20512;-58
2021/08/21 08:52:01;;;;;;;3.03;2.63;;;23.80;99.90;;;;;;6273785;22;20169;-59
2021/08/21 08:54:27;;;;;;;2.80;2.60;;;24.10;99.90;;;;;;6273951;22;20142;-59
2021/08/21 08:56:52;;;;;;;2.67;2.47;;;24.00;99.90;;;;;;6274173;22;20178;-59
2021/08/21 08:59:18;;;;;;;2.85;2.63;;;24.10;99.90;;;;;;6273480;22;20142;-59
2021/08/21 09:01:44;;;;;;;2.80;2.60;;;24.20;99.90;;;;;;6273673;22;20161;-56
2021/08/21 09:04:14;;;;;;;3.35;2.97;;;24.20;99.90;;;;;;6273859;22;20142;-58
2021/08/21 09:06:40;;;;;;;2.45;2.25;;;24.30;99.90;;;;;;6274149;22;20165;-58
2021/08/21 09:09:19;;;;;;;2.67;2.47;;;24.50;99.90;;;;;;6273826;22;20146;-58
2021/08/21 09:11:52;;;;;;;3.38;2.72;;;24.60;99.90;;;;;;6273518;22;20177;-58
2021/08/21 09:14:28;;;;;;;3.42;2.58;;;24.80;99.90;;;;;;6274206;22;20457;-55
2021/08/21 09:17:14;;;;;;;2.65;2.45;;;24.60;99.90;;;;;;6273935;22;20180;-59
2021/08/21 09:19:39;;;;;;;2.85;2.38;;;24.90;99.90;;;;;;6246970;22;20584;-59
2021/08/21 09:22:07;;;;;;;2.67;2.47;;;25.30;99.90;;;;;;6274060;22;20260;-57
2021/08/21 09:24:34;;;;;;;2.42;2.22;;;25.50;99.90;;;;;;6273988;22;20142;-58
2021/08/21 09:27:22;;;;;;;2.70;2.50;;;25.80;99.90;;;;;;6273709;22;20142;-58
2021/08/21 09:30:07;;;;;;;2.60;2.40;;;26.10;99.90;;;;;;6273134;22;20142;-58
2021/08/21 09:32:33;;;;;;;2.70;2.50;;;26.20;99.90;;;;;;6273652;22;20169;-59
2021/08/21 09:35:07;;;;;;;2.72;2.53;;;26.20;99.90;;;;;;6246439;22;20146;-57
2021/08/21 09:37:53;;;;;;;2.53;2.33;;;26.20;99.90;;;;;;6246343;22;20499;-59
2021/08/21 09:40:33;;;;;;;2.17;1.98;;;26.10;99.90;;;;;;6272990;22;20596;-56
2021/08/21 09:43:04;;;;;;;2.20;2.10;;;26.10;99.90;;;;;;6273748;22;20129;-59
2021/08/21 09:45:30;;;;;;;2.80;2.60;;;26.10;99.90;;;;;;6273454;22;20136;-58
2021/08/21 09:48:04;;;;;;;2.60;2.40;;;26.10;99.90;;;;;;6273895;22;20245;-59
2021/08/21 09:50:41;;;;;;;2.80;2.60;;;26.20;99.90;;;;;;6272886;22;20141;-59
2021/08/21 09:53:11;;;;;;;2.90;2.30;;;26.50;99.90;;;;;;6273589;22;20476;-59
2021/08/21 09:55:37;;;;;;;3.05;2.75;;;26.50;99.90;;;;;;6273687;22;20150;-59
2021/08/21 09:58:20;;;;;;;2.85;2.63;;;26.50;99.90;;;;;;6274304;22;20176;-57
2021/08/21 10:00:48;;;;;;;3.00;2.70;;;26.40;99.90;;;;;;6275002;22;20122;-59
2021/08/21 10:03:14;;;;;;;3.28;3.00;;;26.20;99.90;;;;;;6275899;22;20169;-57
2021/08/21 10:05:41;;;;;;;2.88;2.67;;;26.30;99.90;;;;;;6275761;22;20146;-59
2021/08/21 10:08:09;;;;;;;2.80;2.60;;;26.50;99.90;;;;;;6275936;22;20229;-59
2021/08/21 10:10:36;;;;;;;2.60;2.40;;;26.70;99.90;;;;;;6275158;22;20204;-58
2021/08/21 10:13:10;;;;;;;2.92;2.72;;;27.10;99.90;;;;;;6296500;22;20193;-66
2021/08/21 10:15:41;;;;;;;2.88;2.67;;;27.10;99.90;;;;;;6305724;22;20451;-67
2021/08/21 10:18:09;;;;;;;4.72;2.90;;;27.30;99.90;;;;;;6306033;22;20525;-66
2021/08/21 10:20:36;;;;;;;2.80;2.60;;;27.30;99.90;;;;;;6305636;22;20165;-66
2021/08/21 10:23:14;;;;;;;4.65;2.92;;;27.20;99.90;;;;;;6282447;22;20173;-66
2021/08/21 10:25:45;;;;;;;3.92;2.90;;;26.90;99.90;;;;;;6275346;22;20154;-66
2021/08/21 10:28:13;;;;;;;3.00;2.80;;;26.90;99.90;;;;;;6248218;22;20138;-66
2021/08/21 10:30:46;;;;;;;3.65;2.72;;;26.70;99.90;;;;;;6274789;22;20142;-66
2021/08/21 10:33:13;;;;;;;2.50;2.30;;;26.90;99.90;;;;;;6247781;22;20181;-67
2021/08/21 10:35:48;;;;;;;2.45;2.35;;;27.20;99.90;;;;;;6275148;22;20180;-67
2021/08/21 10:38:30;;;;;;;3.03;2.60;;;27.80;99.90;;;;;;6274952;22;20192;-67
2021/08/21 10:41:19;;;;;;;3.40;2.53;;;27.80;99.90;;;;;;6275474;22;20157;-67
2021/08/21 10:43:53;;;;;;;3.40;3.10;;;27.60;99.90;;;;;;6258251;22;20146;-66
2021/08/21 10:46:30;;;;;;;3.03;2.70;;;27.60;99.90;;;;;;6275165;22;20135;-66
2021/08/21 10:49:01;;;;;;;2.90;2.70;;;27.60;99.90;;;;;;6274566;22;20285;-67
2021/08/21 10:51:38;;;;;;;2.88;2.53;;;27.80;99.90;;;;;;6275349;22;20219;-67
2021/08/21 10:54:19;;;;;;;3.78;2.70;;;28.10;99.90;;;;;;6274994;22;20201;-67
2021/08/21 10:56:45;;;;;;;3.00;2.70;;;28.30;99.90;;;;;;6275097;22;20469;-67
2021/08/21 10:59:12;;;;;;;3.58;2.80;;;28.60;99.90;;;;;;6274738;22;20142;-66
2021/08/21 11:01:37;;;;;;;2.47;2.28;;;28.80;99.90;;;;;;6274997;22;20189;-66
2021/08/21 11:04:03;;;;;;;2.75;2.55;;;29.10;99.90;;;;;;6274744;22;20142;-67
2021/08/21 11:06:37;;;;;;;2.65;2.45;;;29.40;99.90;;;;;;6274918;22;20223;-67
2021/08/21 11:09:08;;;;;;;2.63;2.42;;;29.80;99.90;;;;;;6273868;22;20562;-67
2021/08/21 11:11:49;;;;;;;2.90;2.58;;;29.70;99.90;;;;;;6274607;22;20215;-67
2021/08/21 11:14:20;;;;;;;2.50;2.30;;;29.60;99.90;;;;;;6275055;22;20134;-67
2021/08/21 11:17:03;;;;;;;2.70;2.30;;;29.60;99.90;;;;;;6274986;22;20177;-68
2021/08/21 11:19:57;;;;;;;2.55;2.35;;;29.60;99.90;;;;;;6274683;22;20150;-67
2021/08/21 11:22:27;;;;;;;2.45;2.25;;;29.70;99.90;;;;;;6150867;23;20176;-66
2021/08/21 11:24:53;;;;;;;2.78;2.50;;;29.80;99.90;;;;;;6150815;23;20149;-67
2021/08/21 11:27:30;;;;;;;2.53;2.33;;;30.10;99.90;;;;;;6151029;23;20155;-67
2021/08/21 11:30:07;;;;;;;2.60;2.40;;;30.40;99.90;;;;;;6150270;23;20152;-67
2021/08/21 11:32:44;;;;;;;2.45;2.28;;;30.60;99.90;;;;;;6150957;23;20280;-66
2021/08/21 11:35:45;;;;;;;2.88;2.67;;;30.80;99.90;;;;;;6150765;23;20512;-67
2021/08/21 11:38:13;;;;;;;2.40;2.20;;;31.10;99.90;;;;;;6063195;23;20693;-67
2021/08/21 11:40:50;;;;;;;2.90;2.50;;;31.20;99.00;;;;;;6062689;23;20151;-67
2021/08/21 11:43:27;;;;;;;3.42;2.40;;;31.40;98.80;;;;;;6063222;23;20306;-67
2021/08/21 11:45:54;;;;;;;2.88;2.67;;;31.60;98.90;;;;;;6063092;23;20158;-67
2021/08/21 11:48:24;;;;;;;2.83;2.50;;;31.80;99.30;;;;;;6063283;23;20161;-67
2021/08/21 11:50:50;;;;;;;3.33;2.38;;;31.70;97.60;;;;;;6063144;23;20590;-68
2021/08/21 11:53:21;;;;;;;3.58;2.13;;;31.60;96.80;;;;;;6063314;23;20180;-67
2021/08/21 11:55:47;;;;;;;2.33;2.22;;;32.10;98.80;;;;;;6063351;23;20537;-67
2021/08/21 11:58:13;;;;;;;2.40;2.20;;;32.50;97.70;;;;;;6078301;23;20200;-67
2021/08/21 12:00:42;;;;;;;2.35;2.15;;;32.50;96.00;;;;;;6121185;23;20173;-67
2021/08/21 12:03:10;;;;;;;2.33;2.13;;;32.20;95.30;;;;;;6121069;23;20170;-67
2021/08/21 12:05:45;;;;;;;2.17;2.08;;;32.00;97.80;;;;;;6121295;23;20149;-67
2021/08/21 12:08:29;;;;;;;3.25;2.15;;;32.50;96.00;;;;;;6121380;23;20171;-66
2021/08/21 12:11:00;;;;;;;2.40;2.20;;;33.10;95.40;;;;;;6121517;23;20152;-68
2021/08/21 12:13:34;;;;;;;3.97;2.80;;;33.50;94.30;;;;;;6132324;22;20181;-67
2021/08/21 12:16:10;;;;;;;4.50;3.55;;;33.60;94.20;;;;;;6274589;22;20187;-67
2021/08/21 12:18:38;;;;;;;2.83;2.50;;;33.50;93.70;;;;;;6247013;22;20161;-66
2021/08/21 12:21:05;;;;;;;5.30;3.80;;;33.20;93.70;;;;;;6274424;22;20138;-67
2021/08/21 12:23:32;;;;;;;2.65;2.30;;;33.10;94.00;;;;;;6274259;22;20200;-66
2021/08/21 12:26:03;;;;;;;2.95;2.20;;;33.00;93.30;;;;;;6274876;22;20153;-67
2021/08/21 12:28:45;;;;;;;2.30;2.13;;;33.50;93.10;;;;;;6273932;22;20233;-66
2021/08/21 12:31:13;;;;;;;2.95;2.50;;;33.80;93.10;;;;;;6274465;22;20267;-67
2021/08/21 12:33:41;;;;;;;2.78;2.58;;;34.10;92.30;;;;;;6274140;22;20157;-67
2021/08/21 12:36:19;;;;;;;2.40;2.20;;;34.60;90.90;;;;;;6274396;22;20152;-66
2021/08/21 12:39:09;;;;;;;2.80;2.50;;;34.80;91.60;;;;;;6273954;22;20825;-67
2021/08/21 12:41:56;;;;;;;2.38;2.17;;;35.50;90.80;;;;;;6274377;22;20172;-67
2021/08/21 12:44:42;;;;;;;1.88;1.77;;;36.40;91.00;;;;;;6274489;22;20137;-67
2021/08/21 12:47:20;;;;;;;2.55;1.90;;;37.40;86.80;;;;;;6274804;22;20153;-66
2021/08/21 12:49:49;;;;;;;2.10;1.95;;;38.10;85.30;;;;;;6274161;22;20149;-67
2021/08/21 12:52:26;;;;;;;2.25;2.13;;;38.40;86.30;;;;;;6274224;22;20240;-67
2021/08/21 12:55:00;;;;;;;4.63;2.72;;;38.80;82.20;;;;;;6274531;22;20461;-68
2021/08/21 12:57:31;;;;;;;2.30;2.10;;;38.70;79.80;;;;;;6274178;22;20196;-68